createdAt,value
2022-12-25T00:00:00.232Z,9.50
2022-12-25T00:02:29.747Z,9.50
2022-12-25T00:04:57.971Z,9.50
2022-12-25T00:07:27.383Z,9.50
2022-12-25T00:09:55.338Z,9.50
2022-12-25T00:12:23.257Z,9.50
2022-12-25T00:14:51.366Z,9.50
2022-12-25T00:17:19.295Z,9.50
2022-12-25T00:19:47.313Z,9.50
2022-12-25T00:22:15.265Z,9.40
2022-12-25T00:24:44.616Z,9.30
2022-12-25T00:27:12.668Z,9.30
2022-12-25T00:29:40.733Z,9.30
2022-12-25T00:32:09.520Z,9.20
2022-12-25T00:34:37.523Z,9.30
2022-12-25T00:37:05.681Z,9.30
2022-12-25T00:39:33.710Z,9.30
2022-12-25T00:42:21.265Z,9.40
2022-12-25T00:44:50.066Z,9.40
2022-12-25T00:47:19.258Z,9.40
2022-12-25T00:49:47.434Z,9.40
2022-12-25T00:52:15.404Z,9.30
2022-12-25T00:54:43.468Z,9.30
2022-12-25T00:57:12.854Z,9.30
2022-12-25T00:59:40.975Z,9.30
2022-12-25T01:02:25.725Z,9.30
2022-12-25T01:04:56.161Z,9.30
2022-12-25T01:07:25.896Z,9.30
2022-12-25T01:10:11.748Z,9.40
2022-12-25T01:12:43.197Z,9.30
2022-12-25T01:15:13.275Z,9.30
2022-12-25T01:17:41.355Z,9.40
2022-12-25T01:23:57.533Z,9.30
2022-12-25T01:26:28.381Z,9.30
2022-12-25T01:28:57.769Z,9.30
2022-12-25T01:31:26.080Z,9.30
2022-12-25T01:33:54.188Z,9.30
2022-12-25T01:36:23.865Z,9.30
2022-12-25T01:38:52.648Z,9.30
2022-12-25T01:41:23.042Z,9.30
2022-12-25T01:44:05.194Z,9.30
2022-12-25T01:46:34.215Z,9.30
2022-12-25T01:49:06.567Z,9.30
2022-12-25T01:51:40.155Z,9.30
2022-12-25T01:54:13.949Z,9.30
2022-12-25T01:56:44.679Z,9.30
2022-12-25T01:59:17.361Z,9.30
2022-12-25T02:01:45.657Z,9.30
2022-12-25T02:04:20.777Z,9.30
2022-12-25T02:06:50.870Z,9.30
2022-12-25T02:09:19.617Z,9.30
2022-12-25T02:12:00.271Z,9.30
2022-12-25T02:14:32.391Z,9.30
2022-12-25T02:17:07.612Z,9.30
2022-12-25T02:20:03.636Z,9.40
2022-12-25T02:22:43.801Z,9.40
2022-12-25T02:25:29.458Z,9.30
2022-12-25T02:28:15.454Z,9.30
2022-12-25T02:30:47.409Z,9.30
2022-12-25T02:33:36.936Z,9.30
2022-12-25T02:36:10.044Z,9.20
2022-12-25T02:39:01.306Z,9.20
2022-12-25T02:41:30.762Z,9.20
2022-12-25T02:44:21.770Z,9.20
2022-12-25T02:47:07.201Z,9.20
2022-12-25T02:49:54.255Z,9.10
2022-12-25T02:52:41.620Z,9.10
2022-12-25T02:55:31.679Z,9.10
2022-12-25T02:58:21.000Z,9.10
2022-12-25T03:01:13.984Z,9.00
2022-12-25T03:04:02.339Z,9.00
2022-12-25T03:06:46.977Z,9.00
2022-12-25T03:09:38.230Z,9.00
2022-12-25T03:12:18.801Z,9.00
2022-12-25T03:15:06.748Z,8.90
2022-12-25T03:17:36.526Z,8.90
2022-12-25T03:20:24.077Z,8.90
2022-12-25T03:23:10.193Z,8.90
2022-12-25T03:25:55.817Z,8.80
2022-12-25T03:28:23.718Z,8.80
2022-12-25T03:31:11.559Z,8.80
2022-12-25T03:34:19.043Z,8.80
2022-12-25T03:37:03.870Z,8.70
2022-12-25T03:39:56.475Z,8.70
2022-12-25T03:42:47.588Z,8.60
2022-12-25T03:45:52.454Z,8.60
2022-12-25T03:48:39.181Z,8.60
2022-12-25T03:51:29.007Z,8.50
2022-12-25T03:54:20.521Z,8.50
2022-12-25T03:57:06.710Z,8.40
2022-12-25T03:59:52.277Z,8.40
2022-12-25T04:02:38.223Z,8.30
2022-12-25T04:05:24.560Z,8.30
2022-12-25T04:08:11.318Z,8.30
2022-12-25T04:10:56.909Z,8.30
2022-12-25T04:13:42.529Z,8.20
2022-12-25T04:16:28.179Z,8.20
2022-12-25T04:19:13.901Z,8.10
2022-12-25T04:21:59.257Z,8.10
2022-12-25T04:24:57.455Z,8.10
2022-12-25T04:27:43.256Z,8.00
2022-12-25T04:30:29.095Z,8.00
2022-12-25T04:33:16.430Z,7.90
2022-12-25T04:36:05.615Z,7.90
2022-12-25T04:38:33.797Z,7.80
2022-12-25T04:41:03.951Z,7.90
2022-12-25T04:43:32.191Z,7.90
2022-12-25T04:46:01.739Z,7.90
2022-12-25T04:48:32.080Z,7.80
2022-12-25T04:51:10.023Z,7.80
2022-12-25T04:53:37.952Z,7.70
2022-12-25T04:56:07.622Z,7.70
2022-12-25T04:58:35.643Z,7.70
2022-12-25T05:01:04.575Z,7.60
2022-12-25T05:03:33.359Z,7.60
2022-12-25T05:06:02.141Z,7.60
2022-12-25T05:08:31.016Z,7.50
2022-12-25T05:10:59.564Z,7.50
2022-12-25T05:13:28.854Z,7.50
2022-12-25T05:15:56.789Z,7.50
2022-12-25T05:18:24.958Z,7.50
2022-12-25T05:20:54.415Z,7.50
2022-12-25T05:23:23.069Z,7.40
2022-12-25T05:25:51.042Z,7.40
2022-12-25T05:28:19.854Z,7.40
2022-12-25T05:30:49.215Z,7.30
2022-12-25T05:33:17.221Z,7.30
2022-12-25T05:35:45.177Z,7.30
2022-12-25T05:38:13.097Z,7.30
2022-12-25T05:40:41.793Z,7.30
2022-12-25T05:43:10.117Z,7.20
2022-12-25T05:45:38.151Z,7.20
2022-12-25T05:48:07.786Z,7.20
2022-12-25T05:50:38.014Z,7.10
2022-12-25T05:53:08.611Z,7.20
2022-12-25T05:55:37.376Z,7.20
2022-12-25T05:58:06.316Z,7.30
2022-12-25T06:00:34.647Z,7.40
2022-12-25T06:03:02.730Z,7.40
2022-12-25T06:05:32.393Z,7.50
2022-12-25T06:08:00.342Z,7.60
2022-12-25T06:10:28.288Z,7.70
2022-12-25T06:12:56.383Z,7.80
2022-12-25T06:15:24.284Z,7.90
2022-12-25T06:17:52.358Z,7.90
2022-12-25T06:20:20.416Z,7.90
2022-12-25T06:22:49.746Z,7.90
2022-12-25T06:25:18.015Z,8.00
2022-12-25T06:27:45.971Z,8.00
2022-12-25T06:30:14.600Z,8.00
2022-12-25T06:32:42.509Z,8.00
2022-12-25T06:35:10.664Z,8.00
2022-12-25T06:37:38.614Z,8.10
2022-12-25T06:40:09.456Z,8.00
2022-12-25T06:42:37.345Z,8.10
2022-12-25T06:45:05.793Z,8.20
2022-12-25T06:47:33.798Z,8.20
2022-12-25T06:50:01.743Z,8.20
2022-12-25T06:52:29.691Z,8.20
2022-12-25T06:54:57.601Z,8.20
2022-12-25T06:57:26.880Z,8.30
2022-12-25T06:59:55.657Z,8.20
2022-12-25T07:02:25.443Z,8.30
2022-12-25T07:04:54.177Z,8.40
2022-12-25T07:07:23.651Z,8.40
2022-12-25T07:09:51.695Z,8.40
2022-12-25T07:12:23.178Z,8.40
2022-12-25T07:14:56.336Z,8.40
2022-12-25T07:17:24.924Z,8.40
2022-12-25T07:19:52.895Z,8.40
2022-12-25T07:22:20.887Z,8.40
2022-12-25T07:24:48.897Z,8.40
2022-12-25T07:27:17.062Z,8.40
2022-12-25T07:29:45.040Z,8.40
2022-12-25T07:32:14.381Z,8.40
2022-12-25T07:34:42.334Z,8.50
2022-12-25T07:37:10.247Z,8.40
2022-12-25T07:39:38.288Z,8.40
2022-12-25T07:42:06.312Z,8.40
2022-12-25T07:44:34.197Z,8.50
2022-12-25T07:47:02.153Z,8.50
2022-12-25T07:49:31.449Z,8.50
2022-12-25T07:51:59.388Z,8.60
2022-12-25T07:54:27.365Z,8.60
2022-12-25T07:56:55.373Z,8.60
2022-12-25T07:59:23.326Z,8.60
2022-12-25T08:01:51.683Z,8.70
2022-12-25T08:04:19.941Z,8.70
2022-12-25T08:06:49.308Z,8.70
2022-12-25T08:09:17.328Z,8.70
2022-12-25T08:11:47.727Z,8.80
2022-12-25T08:14:16.301Z,8.90
2022-12-25T08:19:29.195Z,8.90
2022-12-25T08:22:28.725Z,9.00
2022-12-25T08:24:58.452Z,9.00
2022-12-25T08:27:26.401Z,9.00
2022-12-25T08:29:54.387Z,9.10
2022-12-25T08:32:22.858Z,9.20
2022-12-25T08:34:50.784Z,9.30
2022-12-25T08:37:18.806Z,9.30
2022-12-25T08:39:48.127Z,9.40
2022-12-25T08:42:16.369Z,9.50
2022-12-25T08:44:44.250Z,9.60
2022-12-25T08:47:17.282Z,9.60
2022-12-25T08:49:45.421Z,9.70
2022-12-25T08:52:13.748Z,9.70
2022-12-25T08:54:41.717Z,9.80
2022-12-25T08:57:11.029Z,9.90
2022-12-25T08:59:38.924Z,10.00
2022-12-25T09:02:07.408Z,10.00
2022-12-25T09:04:35.573Z,9.90
2022-12-25T09:07:03.737Z,10.00
2022-12-25T09:09:31.828Z,10.10
2022-12-25T09:11:59.857Z,10.20
2022-12-25T09:14:29.447Z,10.20
2022-12-25T09:16:57.367Z,10.20
2022-12-25T09:19:25.323Z,10.20
2022-12-25T09:21:53.841Z,10.20
2022-12-25T09:24:21.942Z,10.30
2022-12-25T09:26:50.067Z,10.30
2022-12-25T09:29:18.612Z,10.40
2022-12-25T09:31:47.977Z,10.50
2022-12-25T09:34:19.007Z,10.50
2022-12-25T09:36:47.228Z,10.50
2022-12-25T09:39:15.195Z,10.50
2022-12-25T09:41:59.357Z,10.50
2022-12-25T09:44:30.071Z,10.40
2022-12-25T09:47:06.536Z,10.40
2022-12-25T09:49:41.151Z,10.40
2022-12-25T09:52:13.778Z,10.40
2022-12-25T09:54:50.792Z,10.40
2022-12-25T09:57:18.785Z,10.30
2022-12-25T09:59:47.629Z,10.30
2022-12-25T10:02:37.837Z,10.30
2022-12-25T10:05:17.933Z,10.30
2022-12-25T10:07:56.231Z,10.40
2022-12-25T10:10:42.363Z,10.50
2022-12-25T10:13:23.649Z,10.70
2022-12-25T10:15:55.572Z,10.70
2022-12-25T10:18:54.060Z,10.90
2022-12-25T10:21:24.384Z,11.40
2022-12-25T10:24:03.346Z,12.20
2022-12-25T10:26:34.036Z,13.10
2022-12-25T10:29:06.898Z,13.80
2022-12-25T10:31:37.594Z,14.20
2022-12-25T10:34:07.896Z,14.60
2022-12-25T10:36:35.974Z,14.80
2022-12-25T10:39:04.498Z,14.90
2022-12-25T10:42:04.320Z,14.80
2022-12-25T10:44:33.264Z,14.80
2022-12-25T10:47:03.072Z,14.40
2022-12-25T10:49:35.238Z,14.10
2022-12-25T10:52:04.354Z,14.00
2022-12-25T10:54:35.159Z,13.90
2022-12-25T10:57:05.905Z,13.70
2022-12-25T10:59:37.070Z,13.50
2022-12-25T11:02:15.132Z,13.30
2022-12-25T11:04:44.746Z,13.20
2022-12-25T11:07:23.620Z,13.00
2022-12-25T11:09:54.655Z,12.80
2022-12-25T11:12:30.471Z,12.70
2022-12-25T11:15:00.436Z,12.70
2022-12-25T11:17:29.169Z,12.80
2022-12-25T11:20:00.427Z,12.80
2022-12-25T11:22:29.558Z,13.10
2022-12-25T11:24:57.698Z,13.50
2022-12-25T11:27:29.612Z,13.70
2022-12-25T11:30:00.215Z,13.60
2022-12-25T11:32:32.476Z,13.60
2022-12-25T11:35:03.616Z,13.40
2022-12-25T11:37:36.782Z,13.30
2022-12-25T11:40:06.617Z,13.20
2022-12-25T11:42:38.205Z,13.30
2022-12-25T11:45:13.002Z,13.30
2022-12-25T11:47:45.936Z,13.30
2022-12-25T11:50:24.229Z,13.20
2022-12-25T11:52:54.049Z,13.10
2022-12-25T11:55:29.983Z,13.10
2022-12-25T11:58:02.767Z,13.20
2022-12-25T12:00:32.958Z,13.30
2022-12-25T12:03:06.904Z,13.30
2022-12-25T12:05:43.866Z,13.40
2022-12-25T12:08:13.850Z,13.50
2022-12-25T12:11:15.719Z,13.50
2022-12-25T12:13:57.472Z,13.60
2022-12-25T12:16:26.030Z,13.50
2022-12-25T12:18:54.695Z,13.40
2022-12-25T12:21:25.934Z,13.20
2022-12-25T12:24:02.188Z,13.10
2022-12-25T12:26:34.820Z,13.00
2022-12-25T12:29:04.272Z,13.00
2022-12-25T12:31:39.948Z,13.00
2022-12-25T12:34:18.288Z,13.10
2022-12-25T12:36:47.838Z,13.20
2022-12-25T12:39:25.281Z,13.30
2022-12-25T12:41:53.907Z,13.50
2022-12-25T12:44:27.277Z,13.60
2022-12-25T12:46:56.988Z,13.60
2022-12-25T12:49:26.863Z,13.40
2022-12-25T12:52:07.620Z,13.30
2022-12-25T12:54:54.457Z,13.10
2022-12-25T12:57:25.355Z,13.00
2022-12-25T12:59:53.538Z,12.80
2022-12-25T13:02:57.672Z,12.70
2022-12-25T13:05:35.509Z,12.70
2022-12-25T13:08:17.964Z,12.70
2022-12-25T13:10:49.830Z,12.70
2022-12-25T13:13:22.920Z,12.70
2022-12-25T13:15:52.606Z,12.70
2022-12-25T13:18:21.451Z,12.80
2022-12-25T13:20:55.001Z,12.70
2022-12-25T13:23:28.923Z,12.70
2022-12-25T13:25:59.365Z,12.80
2022-12-25T13:28:30.045Z,12.70
2022-12-25T13:31:06.668Z,12.70
2022-12-25T13:33:35.749Z,12.70
2022-12-25T13:36:05.508Z,12.70
2022-12-25T13:38:35.555Z,12.60
2022-12-25T13:41:21.595Z,12.50
2022-12-25T13:43:50.560Z,12.50
2022-12-25T13:46:27.079Z,12.40
2022-12-25T13:49:01.070Z,12.30
2022-12-25T13:51:29.510Z,12.30
2022-12-25T13:54:10.375Z,12.30
2022-12-25T13:56:38.457Z,12.30
2022-12-25T13:59:06.417Z,12.30
2022-12-25T14:01:34.612Z,12.30
2022-12-25T14:04:02.662Z,12.30
2022-12-25T14:06:33.202Z,12.20
2022-12-25T14:09:01.640Z,12.20
2022-12-25T14:11:32.135Z,12.20
2022-12-25T14:14:04.864Z,12.10
2022-12-25T14:16:33.338Z,12.10
2022-12-25T14:19:03.668Z,12.10
2022-12-25T14:21:34.319Z,12.10
2022-12-25T14:24:02.522Z,12.00
2022-12-25T14:26:34.279Z,12.00
2022-12-25T14:29:15.666Z,12.00
2022-12-25T14:31:46.839Z,12.00
2022-12-25T14:34:19.851Z,11.90
2022-12-25T14:36:48.839Z,11.90
2022-12-25T14:39:38.575Z,11.90
2022-12-25T14:42:20.397Z,11.80
2022-12-25T14:44:59.701Z,11.80
2022-12-25T14:47:28.485Z,11.70
2022-12-25T14:49:56.789Z,11.80
2022-12-25T14:52:29.222Z,11.80
2022-12-25T14:55:00.261Z,11.80
2022-12-25T14:57:33.559Z,11.70
2022-12-25T15:00:07.868Z,11.60
2022-12-25T15:02:47.233Z,11.70
2022-12-25T15:05:31.873Z,11.60
2022-12-25T15:08:06.406Z,11.60
2022-12-25T15:13:25.088Z,11.50
2022-12-25T15:15:57.106Z,11.50
2022-12-25T15:18:29.183Z,11.50
2022-12-25T15:20:57.118Z,11.50
2022-12-25T15:23:25.556Z,11.60
2022-12-25T15:25:53.936Z,11.50
2022-12-25T15:28:21.937Z,11.50
2022-12-25T15:30:51.304Z,11.50
2022-12-25T15:33:20.188Z,11.50
2022-12-25T15:35:48.951Z,11.40
2022-12-25T15:38:17.015Z,11.50
2022-12-25T15:40:45.049Z,11.50
2022-12-25T15:43:39.243Z,11.40
2022-12-25T15:46:04.964Z,11.40
2022-12-25T15:48:32.879Z,11.30
2022-12-25T15:51:00.828Z,11.20
2022-12-25T15:53:28.847Z,11.20
2022-12-25T15:55:56.984Z,11.20
2022-12-25T15:58:24.944Z,11.20
2022-12-25T16:00:52.832Z,11.10
2022-12-25T16:03:22.146Z,11.10
2022-12-25T16:05:50.335Z,11.10
2022-12-25T16:08:18.200Z,11.10
2022-12-25T16:10:46.277Z,11.00
2022-12-25T16:13:14.550Z,11.00
2022-12-25T16:15:42.572Z,11.00
2022-12-25T16:18:11.784Z,11.00
2022-12-25T16:20:41.707Z,10.90
2022-12-25T16:23:09.768Z,10.90
2022-12-25T16:25:37.651Z,10.90
2022-12-25T16:28:09.541Z,10.80
2022-12-25T16:30:37.680Z,10.80
2022-12-25T16:33:06.471Z,10.80
2022-12-25T16:35:34.971Z,10.70
2022-12-25T16:38:04.558Z,10.70
2022-12-25T16:40:32.850Z,10.70
2022-12-25T16:43:01.064Z,10.70
2022-12-25T16:45:29.237Z,10.60
2022-12-25T16:47:58.179Z,10.60
2022-12-25T16:50:26.146Z,10.60
2022-12-25T16:52:54.148Z,10.70
2022-12-25T16:55:29.355Z,10.60
2022-12-25T16:57:58.201Z,10.60
2022-12-25T17:00:26.336Z,10.60
2022-12-25T17:02:56.987Z,10.70
2022-12-25T17:05:25.557Z,10.70
2022-12-25T17:07:53.634Z,10.70
2022-12-25T17:10:22.856Z,10.70
2022-12-25T17:12:50.738Z,10.70
2022-12-25T17:15:18.804Z,10.70
2022-12-25T17:17:46.708Z,10.80
2022-12-25T17:20:14.686Z,10.80
2022-12-25T17:22:42.645Z,10.80
2022-12-25T17:25:10.864Z,10.80
2022-12-25T17:27:40.333Z,10.80
2022-12-25T17:30:10.153Z,10.80
2022-12-25T17:32:38.198Z,10.80
2022-12-25T17:35:06.824Z,10.80
2022-12-25T17:37:34.955Z,10.80
2022-12-25T17:40:03.044Z,10.80
2022-12-25T17:42:30.970Z,10.80
2022-12-25T17:45:00.243Z,10.70
2022-12-25T17:47:28.208Z,10.70
2022-12-25T17:53:50.345Z,10.60
2022-12-25T17:56:19.253Z,10.80
2022-12-25T17:58:51.715Z,10.60
2022-12-25T18:01:22.175Z,10.60
2022-12-25T18:03:50.851Z,10.70
2022-12-25T18:06:20.875Z,10.70
2022-12-25T18:08:49.325Z,10.70
2022-12-25T18:11:19.072Z,10.70
2022-12-25T18:13:49.928Z,10.60
2022-12-25T18:16:18.779Z,10.60
2022-12-25T18:18:51.834Z,10.60
2022-12-25T18:21:21.173Z,10.50
2022-12-25T18:23:49.372Z,10.50
2022-12-25T18:26:17.354Z,10.60
2022-12-25T18:28:54.499Z,10.60
2022-12-25T18:31:31.488Z,10.50
2022-12-25T18:34:03.143Z,10.50
2022-12-25T18:36:31.935Z,10.60
2022-12-25T18:39:00.503Z,10.60
2022-12-25T18:41:30.356Z,10.50
2022-12-25T18:47:48.294Z,10.60
2022-12-25T18:50:25.166Z,10.50
2022-12-25T18:52:53.048Z,10.50
2022-12-25T18:55:21.094Z,10.40
2022-12-25T18:57:49.581Z,10.40
2022-12-25T19:00:51.869Z,10.40
2022-12-25T19:03:19.932Z,10.40
2022-12-25T19:05:53.611Z,10.40
2022-12-25T19:08:22.106Z,10.40
2022-12-25T19:10:50.054Z,10.40
2022-12-25T19:13:17.974Z,10.30
2022-12-25T19:15:45.994Z,10.30
2022-12-25T19:18:13.949Z,10.30
2022-12-25T19:20:42.164Z,10.20
2022-12-25T19:23:11.627Z,10.20
2022-12-25T19:25:40.728Z,10.10
2022-12-25T19:28:08.702Z,10.30
2022-12-25T19:30:38.271Z,10.20
2022-12-25T19:33:07.406Z,10.10
2022-12-25T19:35:40.186Z,10.10
2022-12-25T19:38:08.264Z,10.10
2022-12-25T19:40:40.082Z,10.10
2022-12-25T19:43:08.605Z,10.10
2022-12-25T19:45:36.560Z,10.10
2022-12-25T19:48:05.089Z,10.10
2022-12-25T19:50:33.149Z,10.10
2022-12-25T19:53:01.285Z,10.00
2022-12-25T19:55:29.270Z,10.10
2022-12-25T19:57:59.221Z,10.10
2022-12-25T20:00:27.391Z,10.10
2022-12-25T20:02:55.643Z,10.20
2022-12-25T20:05:23.638Z,10.10
2022-12-25T20:07:51.627Z,10.10
2022-12-25T20:10:19.698Z,10.10
2022-12-25T20:12:47.968Z,10.10
2022-12-25T20:15:17.470Z,10.10
2022-12-25T20:17:47.046Z,10.00
2022-12-25T20:20:15.610Z,10.00
2022-12-25T20:22:43.745Z,10.00
2022-12-25T20:25:14.027Z,9.90
2022-12-25T20:27:42.303Z,9.90
2022-12-25T20:30:11.319Z,9.80
2022-12-25T20:32:44.986Z,9.80
2022-12-25T20:35:16.568Z,9.80
2022-12-25T20:37:44.932Z,9.80
2022-12-25T20:40:13.837Z,9.90
2022-12-25T20:42:43.247Z,9.80
2022-12-25T20:45:12.523Z,9.80
2022-12-25T20:47:41.783Z,9.80
2022-12-25T20:50:23.428Z,9.70
2022-12-25T20:52:54.534Z,9.70
2022-12-25T20:55:22.682Z,9.80
2022-12-25T20:57:50.720Z,9.70
2022-12-25T21:00:18.970Z,9.70
2022-12-25T21:02:48.457Z,9.60
2022-12-25T21:05:16.618Z,9.60
2022-12-25T21:07:44.648Z,9.60
2022-12-25T21:10:12.714Z,9.60
2022-12-25T21:12:40.795Z,9.60
2022-12-25T21:15:15.152Z,9.50
2022-12-25T21:17:43.712Z,9.50
2022-12-25T21:20:13.167Z,9.50
2022-12-25T21:22:41.243Z,9.40
2022-12-25T21:25:10.436Z,9.50
2022-12-25T21:27:38.377Z,9.40
2022-12-25T21:30:15.125Z,9.40
2022-12-25T21:33:01.104Z,9.40
2022-12-25T21:35:30.469Z,9.40
2022-12-25T21:37:58.474Z,9.40
2022-12-25T21:40:26.494Z,9.40
2022-12-25T21:42:54.443Z,9.40
2022-12-25T21:45:22.456Z,9.40
2022-12-25T21:48:02.097Z,9.30
2022-12-25T21:50:50.439Z,9.40
2022-12-25T21:53:19.712Z,9.30
2022-12-25T21:55:57.966Z,9.40
2022-12-25T21:58:26.278Z,9.40
2022-12-25T22:00:54.456Z,9.40
2022-12-25T22:03:22.760Z,9.40
2022-12-25T22:06:09.921Z,9.40
2022-12-25T22:08:38.267Z,9.50
2022-12-25T22:11:27.130Z,9.60
2022-12-25T22:14:12.625Z,9.60
2022-12-25T22:16:58.285Z,9.70
2022-12-25T22:20:01.804Z,9.70
2022-12-25T22:22:32.170Z,9.70
2022-12-25T22:25:01.726Z,9.70
2022-12-25T22:27:33.346Z,9.70
2022-12-25T22:30:01.879Z,9.80
2022-12-25T22:32:29.903Z,9.80
2022-12-25T22:34:58.226Z,9.80
2022-12-25T22:37:26.175Z,9.90
2022-12-25T22:39:55.484Z,9.80
2022-12-25T22:42:23.409Z,9.80
2022-12-25T22:44:51.491Z,9.70
2022-12-25T22:47:19.762Z,9.70
2022-12-25T22:49:47.682Z,9.60
2022-12-25T22:52:15.687Z,9.60
2022-12-25T22:54:43.595Z,9.50
2022-12-25T22:57:12.980Z,9.50
2022-12-25T22:59:41.583Z,9.50
2022-12-25T23:02:09.895Z,9.40
2022-12-25T23:04:38.162Z,9.40
2022-12-25T23:07:06.101Z,9.40
2022-12-25T23:09:34.006Z,9.40
2022-12-25T23:12:01.917Z,9.40
2022-12-25T23:14:39.251Z,9.50
2022-12-25T23:17:28.709Z,9.50
2022-12-25T23:20:14.815Z,9.60
2022-12-25T23:23:01.069Z,9.60
2022-12-25T23:25:48.322Z,9.70
2022-12-25T23:28:36.208Z,9.70
2022-12-25T23:31:04.669Z,9.80
2022-12-25T23:33:32.832Z,9.80
2022-12-25T23:36:00.777Z,9.80
2022-12-25T23:38:28.789Z,9.80
2022-12-25T23:40:56.748Z,9.70
2022-12-25T23:43:24.720Z,9.80
2022-12-25T23:45:52.665Z,9.90
2022-12-25T23:48:21.879Z,9.80
2022-12-25T23:50:49.814Z,9.80
2022-12-25T23:53:17.744Z,9.80
2022-12-25T23:55:51.589Z,9.80
2022-12-25T23:58:23.161Z,9.90
